• Join FlightAware (Why Join?)
  • Login
  • US Flag 
09:36AM EST


 

Airport Tracker/Info


-or-


 

Live Flight TrackerFlight Track Log ✈ SKW2630 ✈ 09-May-2013 ✈ KLAX - KFAT

Flight Track Log - Related Links

Times and Time Zones

All times are in EDT time to prevent confusion due to time zone crossing. See the SKW2630 flight status page for this flight to view local times or setup timezone preferences in your user account.

Time Position Orientation Groundspeed Altitude Reporting Facility
EDT Latitude Longitude Course Direction KTS MPH feet Rate Location/Type
11:46AM 33.9500 -118.4500 270° West 164 189 1,400  Level Southern California TRACON
11:47AM 33.9500 -118.5167 270° West 226 260 3,200 2,220 Climbing Southern California TRACON
11:48AM 33.9369 -118.5708 254° West 251 289 5,100 2,820 Climbing Los Angeles Center
11:49AM 33.9519 -118.6669 281° West 282 325 8,100 1,860 Climbing Los Angeles Center
11:50AM 33.9814 -118.7586 291° West 296 341 9,000 420 Climbing Los Angeles Center
11:51AM 34.0342 -118.8086 322° Northwest 292 336 9,000  Level Los Angeles Center
11:52AM 34.0836 -118.7217 56° Northeast 281 323 9,000  Level Los Angeles Center
11:53AM 34.1297 -118.6497 52° Northeast 271 312 9,000 1,200 Level Los Angeles Center
11:54AM 34.2092 -118.6522 359° North 290 334 11,600 2,400 Climbing Los Angeles Center
11:55AM 34.2953 -118.6714 350° North 313 360 14,000 2,220 Climbing Los Angeles Center
11:56AM 34.3842 -118.6897 350° North 323 372 16,200 1,980 Climbing Los Angeles Center
11:57AM 34.4758 -118.7081 351° North 333 383 18,200 1,920 Climbing Los Angeles Center
11:58AM 34.5675 -118.7278 350° North 335 386 20,200 1,800 Climbing Los Angeles Center
11:59AM 34.6811 -118.7553 349° North 349 402 22,000 840 Climbing Los Angeles Center
12:00PM 34.7844 -118.7747 351° North 379 436 22,000  Level Los Angeles Center
12:01PM 34.8908 -118.7997 349° North 390 449 22,000  Level Los Angeles Center
12:02PM 34.9989 -118.8228 350° North 393 452 22,000  Level Los Angeles Center
12:03PM 35.1103 -118.8447 351° North 397 457 22,000  Level Los Angeles Center
12:04PM 35.2231 -118.8692 350° North 406 467 22,000  Level Los Angeles Center
12:05PM 35.3536 -118.8981 350° North 403 464 22,000  Level Los Angeles Center
12:06PM 35.4633 -118.9219 350° North 401 461 22,000 -660 Level Los Angeles Center
12:07PM 35.5719 -118.9456 350° North 399 459 20,700 -1,620 Descending Los Angeles Center
12:08PM 35.6569 -118.9642 350° North 396 456 19,100 -1,860 Descending Oakland Center
12:09PM 35.7575 -118.9853 350° North 380 437 17,400 -1,740 Descending Oakland Center
12:10PM 35.8556 -119.0075 350° North 368 423 15,600 -1,620 Descending Oakland Center
12:11PM 35.9475 -119.0386 345° North 350 403 14,200 -840 Descending Oakland Center
12:12PM 36.0575 -119.0897 339° North 350 403 14,000 -120 Descending Oakland Center
12:13PM 36.1514 -119.1344 339° North 357 411 14,000 -240 Level Oakland Center
12:14PM 36.2467 -119.1792 339° North 365 420 13,600 -1,200 Descending Oakland Center
12:15PM 36.3386 -119.2225 339° North 356 410 11,600 -1,680 Descending Oakland Center
12:16PM 36.4242 -119.2631 339° North 330 380 10,200 -1,440 Descending Oakland Center
12:17PM 36.4953 -119.2972 339° North 279 321 8,700 -1,740 Descending Oakland Center
12:18PM 36.5608 -119.3417 331° Northwest 276 318 6,700 -1,920 Descending Oakland Center
12:19PM 36.6039 -119.4153 306° West 264 304 4,800 -1,740 Descending Oakland Center
12:20PM 36.6533 -119.4997 306° West 253 291 3,200 -1,080 Descending Oakland Center
12:21PM 36.6878 -119.5597 306° West 222 255 2,600 -540 Descending Oakland Center
12:22PM 36.7117 -119.6067 302° West 169 194 2,200 -540 Descending Oakland Center
12:23PM 36.7369 -119.6514 305° West 151 174 1,500 -720 Descending Oakland Center
12:24PM 36.7586 -119.6894 305° West 141 162 800 -600 Descending Oakland Center
12:25PM 36.7792 -119.7239 307° West 136 157 400 -420 Descending Oakland Center
12:27PM 36.7764 -119.7187 North  Level Estimated
12:34PM 36.7764 -119.7187 North  Level Estimated